createdAt,value
2022-10-04T19:28:37.716Z,14.05
2022-10-04T19:31:34.522Z,14.02
2022-10-04T19:34:14.983Z,14.04
2022-10-04T19:37:00.345Z,14.00
2022-10-04T19:40:30.592Z,13.99
2022-10-04T19:43:15.623Z,13.97
2022-10-04T19:46:06.258Z,13.90
2022-10-04T19:48:41.416Z,13.82
2022-10-04T19:51:39.777Z,13.88
2022-10-04T19:54:15.964Z,13.85
2022-10-04T19:56:48.533Z,13.76
2022-10-04T19:59:26.635Z,13.77
2022-10-04T20:01:53.706Z,13.71
2022-10-04T20:04:35.637Z,13.76
2022-10-04T20:07:18.048Z,13.65
2022-10-04T20:09:47.824Z,13.61
2022-10-04T20:12:38.415Z,13.61
2022-10-04T20:15:17.324Z,13.53
2022-10-04T20:17:47.581Z,13.53
2022-10-04T20:20:38.802Z,13.49
2022-10-04T20:23:08.159Z,13.48
2022-10-04T20:25:50.768Z,13.46
2022-10-04T20:28:26.774Z,13.49
2022-10-04T20:30:57.273Z,13.43
2022-10-04T20:33:39.132Z,13.42
2022-10-04T20:36:21.183Z,13.42
2022-10-04T20:38:52.904Z,13.38
2022-10-04T20:41:28.629Z,13.39
2022-10-04T20:43:57.539Z,13.37
2022-10-04T20:46:39.618Z,13.29
2022-10-04T20:49:16.420Z,13.27
2022-10-04T20:51:52.222Z,13.25
2022-10-04T20:54:21.701Z,13.21
2022-10-04T20:56:50.441Z,13.27
2022-10-04T20:59:18.565Z,13.21
2022-10-04T21:02:04.655Z,13.22
2022-10-04T21:04:42.144Z,13.18
2022-10-04T21:07:17.596Z,13.18
2022-10-04T21:09:45.362Z,13.13
2022-10-04T21:12:36.012Z,13.04
2022-10-04T21:15:20.318Z,13.11
2022-10-04T21:18:07.866Z,13.12
2022-10-04T21:20:51.892Z,13.09
2022-10-04T21:23:32.803Z,13.08
2022-10-04T21:26:24.970Z,13.05
2022-10-04T21:28:57.319Z,12.99
2022-10-04T21:31:24.865Z,12.93
2022-10-04T21:33:51.813Z,12.95
2022-10-04T21:36:18.654Z,12.95
2022-10-04T21:38:45.493Z,12.99
2022-10-04T21:41:12.290Z,12.95
2022-10-04T21:43:39.126Z,12.90
2022-10-04T21:46:06.253Z,12.91
2022-10-04T21:48:33.154Z,12.99
2022-10-04T21:50:59.948Z,12.94
2022-10-04T21:53:26.763Z,12.89
2022-10-04T21:55:53.631Z,12.89
2022-10-04T21:58:21.091Z,12.86
2022-10-04T22:00:47.941Z,12.78
2022-10-04T22:03:14.798Z,12.92
2022-10-04T22:05:41.652Z,12.66
2022-10-04T22:08:08.628Z,12.80
2022-10-04T22:10:35.536Z,12.71
2022-10-04T22:13:02.461Z,12.67
2022-10-04T22:15:29.444Z,12.70
2022-10-04T22:17:57.217Z,12.69
2022-10-04T22:20:25.250Z,12.65
2022-10-04T22:22:53.836Z,12.68
2022-10-04T22:25:25.171Z,12.61
2022-10-04T22:27:53.431Z,12.63
2022-10-04T22:30:27.325Z,12.62
2022-10-04T22:32:59.094Z,12.57
2022-10-04T22:35:29.241Z,12.71
2022-10-04T22:37:56.828Z,12.64
2022-10-04T22:40:25.679Z,12.67
2022-10-04T22:42:55.385Z,12.62
2022-10-04T22:45:26.185Z,12.60
2022-10-04T22:47:56.241Z,12.70
2022-10-04T22:50:32.155Z,12.73
2022-10-04T22:53:12.579Z,12.71
2022-10-04T22:55:42.997Z,12.60
2022-10-04T22:58:13.903Z,12.69
2022-10-04T23:00:41.399Z,12.68
2022-10-04T23:03:31.180Z,12.75
2022-10-04T23:05:59.772Z,12.65
2022-10-04T23:08:29.726Z,12.63
2022-10-04T23:10:59.269Z,12.50
2022-10-04T23:13:27.300Z,12.47
2022-10-04T23:16:00.307Z,12.52
2022-10-04T23:18:29.184Z,12.38
2022-10-04T23:20:59.673Z,12.36
2022-10-04T23:23:28.545Z,12.26
2022-10-04T23:25:55.490Z,12.35
2022-10-04T23:28:23.565Z,12.36
2022-10-04T23:31:21.724Z,12.30
2022-10-04T23:33:49.619Z,12.33
2022-10-04T23:36:17.275Z,12.34
2022-10-04T23:38:52.428Z,12.33
2022-10-04T23:41:20.053Z,12.44
2022-10-04T23:43:48.980Z,12.49
2022-10-04T23:46:21.042Z,12.54
2022-10-04T23:48:49.180Z,12.47
2022-10-04T23:51:19.581Z,12.56
2022-10-04T23:53:50.088Z,12.44
2022-10-04T23:56:23.687Z,12.37
2022-10-04T23:58:53.219Z,12.47
